createdAt,value
2023-03-03T00:00:01.049Z,100770.78
2023-03-03T00:02:41.105Z,100774.78
2023-03-03T00:05:09.212Z,100772.59
2023-03-03T00:07:36.656Z,100770.91
2023-03-03T00:13:02.972Z,100765.56
2023-03-03T00:15:31.192Z,100757.50
2023-03-03T00:18:00.488Z,100757.28
2023-03-03T00:20:33.012Z,100763.25
2023-03-03T00:23:10.201Z,100774.28
2023-03-03T00:25:37.706Z,100774.28
2023-03-03T00:28:09.169Z,100775.16
2023-03-03T00:33:33.189Z,100766.41
2023-03-03T00:39:20.948Z,100767.22
2023-03-03T00:41:50.742Z,100769.63
2023-03-03T00:44:40.038Z,100765.00
2023-03-03T00:47:31.610Z,100755.47
2023-03-03T00:52:56.559Z,100753.56
2023-03-03T00:55:24.112Z,100754.19
2023-03-03T00:57:51.613Z,100748.47
2023-03-03T01:00:22.930Z,100758.69
2023-03-03T01:02:51.922Z,100763.94
2023-03-03T01:05:20.089Z,100762.22
2023-03-03T01:10:40.618Z,100770.66
2023-03-03T01:13:09.430Z,100760.84
2023-03-03T01:15:37.074Z,100764.47
2023-03-03T01:18:04.711Z,100766.66
2023-03-03T01:20:32.307Z,100770.34
2023-03-03T01:22:59.868Z,100770.06
2023-03-03T01:28:31.275Z,100777.31
2023-03-03T01:31:01.832Z,100779.06
2023-03-03T01:33:29.395Z,100773.53
2023-03-03T01:35:56.925Z,100762.94
2023-03-03T01:38:24.348Z,100765.66
2023-03-03T01:40:56.775Z,100765.16
2023-03-03T01:43:24.669Z,100761.13
2023-03-03T01:46:38.006Z,100763.66
2023-03-03T01:49:11.183Z,100763.00
2023-03-03T01:51:42.611Z,100772.25
2023-03-03T01:54:13.563Z,100771.22
2023-03-03T01:56:41.622Z,100770.69
2023-03-03T02:02:12.213Z,100757.06
2023-03-03T02:04:41.336Z,100763.78
2023-03-03T02:10:12.805Z,100760.09
2023-03-03T02:12:43.042Z,100766.16
2023-03-03T02:15:18.749Z,100770.19
2023-03-03T02:17:47.213Z,100765.44
2023-03-03T02:20:18.937Z,100769.78
2023-03-03T02:22:52.415Z,100762.72
2023-03-03T02:25:23.579Z,100764.59
2023-03-03T02:27:53.425Z,100764.94
2023-03-03T02:33:24.015Z,100764.91
2023-03-03T02:35:53.020Z,100770.34
2023-03-03T02:38:24.038Z,100773.31
2023-03-03T02:41:00.819Z,100762.94
2023-03-03T02:43:34.316Z,100766.97
2023-03-03T02:46:02.776Z,100767.25
2023-03-03T02:48:30.238Z,100774.63
2023-03-03T02:50:57.746Z,100771.03
2023-03-03T02:53:25.184Z,100776.19
2023-03-03T02:55:53.775Z,100780.19
2023-03-03T02:58:21.224Z,100775.84
2023-03-03T03:00:50.232Z,100772.44
2023-03-03T03:03:22.206Z,100778.03
2023-03-03T03:05:50.321Z,100767.88
2023-03-03T03:08:20.989Z,100770.34
2023-03-03T03:13:51.847Z,100762.41
2023-03-03T03:16:21.314Z,100781.16
2023-03-03T03:18:50.243Z,100770.47
2023-03-03T03:21:17.909Z,100767.75
2023-03-03T03:26:34.037Z,100755.16
2023-03-03T03:29:01.757Z,100761.53
2023-03-03T03:31:31.129Z,100755.75
2023-03-03T03:34:00.470Z,100757.69
2023-03-03T03:36:29.082Z,100763.25
2023-03-03T03:38:57.033Z,100757.88
2023-03-03T03:41:24.480Z,100756.41
2023-03-03T03:43:51.944Z,100761.06
2023-03-03T03:46:19.597Z,100767.34
2023-03-03T03:48:48.508Z,100765.78
2023-03-03T03:54:08.029Z,100773.03
2023-03-03T03:56:37.182Z,100773.88
2023-03-03T03:59:06.987Z,100763.47
2023-03-03T04:01:34.623Z,100770.09
2023-03-03T04:04:04.019Z,100771.84
2023-03-03T04:06:31.517Z,100777.75
2023-03-03T04:11:57.958Z,100776.69
2023-03-03T04:14:26.942Z,100768.63
2023-03-03T04:16:55.326Z,100768.56
2023-03-03T04:19:24.633Z,100769.53
2023-03-03T04:21:52.513Z,100773.66
2023-03-03T04:24:20.220Z,100767.75
2023-03-03T04:29:49.155Z,100766.53
2023-03-03T04:32:18.398Z,100761.28
2023-03-03T04:34:53.072Z,100759.56
2023-03-03T04:37:26.946Z,100763.59
2023-03-03T04:39:54.575Z,100770.28
2023-03-03T04:42:23.081Z,100759.81
2023-03-03T04:47:39.368Z,100763.78
2023-03-03T04:50:10.690Z,100771.56
2023-03-03T04:52:38.514Z,100771.09
2023-03-03T04:55:10.583Z,100770.09
2023-03-03T04:57:38.908Z,100774.28
2023-03-03T05:03:09.250Z,100787.31
2023-03-03T05:05:38.193Z,100787.22
2023-03-03T05:11:07.968Z,100803.03
2023-03-03T05:16:35.060Z,100808.59
2023-03-03T05:19:02.543Z,100802.56
2023-03-03T05:21:31.271Z,100803.06
2023-03-03T05:23:58.722Z,100807.41
2023-03-03T05:26:26.204Z,100799.72
2023-03-03T05:28:53.671Z,100806.63
2023-03-03T05:31:21.257Z,100802.38
2023-03-03T05:33:48.835Z,100812.78
2023-03-03T05:36:16.283Z,100812.19
2023-03-03T05:38:45.090Z,100815.03
2023-03-03T05:41:12.515Z,100810.78
2023-03-03T05:43:40.531Z,100814.44
2023-03-03T05:46:08.308Z,100809.56
2023-03-03T05:48:35.814Z,100808.84
2023-03-03T05:51:03.253Z,100814.09
2023-03-03T05:53:31.180Z,100806.22
2023-03-03T05:56:00.201Z,100812.47
2023-03-03T05:58:31.867Z,100811.91
2023-03-03T06:00:59.344Z,100814.59
2023-03-03T06:03:26.846Z,100803.69
2023-03-03T06:05:54.386Z,100808.34
2023-03-03T06:08:21.908Z,100803.88
2023-03-03T06:10:49.410Z,100810.41
2023-03-03T06:13:18.416Z,100806.03
2023-03-03T06:15:45.883Z,100818.75
2023-03-03T06:21:11.981Z,100813.94
2023-03-03T06:23:39.452Z,100807.88
2023-03-03T06:29:05.750Z,100816.13
2023-03-03T06:34:30.931Z,100829.53
2023-03-03T06:36:58.395Z,100822.72
2023-03-03T06:39:25.980Z,100829.44
2023-03-03T06:41:53.535Z,100836.41
2023-03-03T06:47:21.331Z,100847.72
2023-03-03T06:49:48.777Z,100844.78
2023-03-03T06:52:20.473Z,100842.06
2023-03-03T06:54:50.684Z,100842.38
2023-03-03T06:57:23.518Z,100849.69
2023-03-03T06:59:53.876Z,100857.00
2023-03-03T07:02:23.827Z,100854.00
2023-03-03T07:04:51.563Z,100867.63
2023-03-03T07:07:21.203Z,100863.75
2023-03-03T07:09:50.676Z,100865.13
2023-03-03T07:12:22.096Z,100871.81
2023-03-03T07:14:55.360Z,100875.75
2023-03-03T07:17:25.632Z,100879.16
2023-03-03T07:22:41.922Z,100889.47
2023-03-03T07:25:21.080Z,100893.53
2023-03-03T07:30:31.448Z,100889.78
2023-03-03T07:33:00.496Z,100896.09
2023-03-03T07:35:36.386Z,100895.88
2023-03-03T07:38:03.910Z,100899.28
2023-03-03T07:40:36.793Z,100899.94
2023-03-03T07:43:23.126Z,100898.91
2023-03-03T07:45:51.123Z,100907.38
2023-03-03T07:48:25.494Z,100907.16
2023-03-03T07:50:53.065Z,100897.19
2023-03-03T07:53:26.884Z,100897.19
2023-03-03T07:55:54.948Z,100911.06
2023-03-03T07:58:24.042Z,100910.66
2023-03-03T08:01:25.168Z,100908.72
2023-03-03T08:03:54.093Z,100910.06
2023-03-03T08:09:49.272Z,100909.19
2023-03-03T08:12:32.078Z,100919.28
2023-03-03T08:15:13.180Z,100919.38
2023-03-03T08:17:41.447Z,100918.78
2023-03-03T08:20:40.253Z,100925.94
2023-03-03T08:23:07.682Z,100923.81
2023-03-03T08:25:35.117Z,100924.03
2023-03-03T08:28:02.594Z,100922.53
2023-03-03T08:30:30.845Z,100918.59
2023-03-03T08:32:58.489Z,100919.44
2023-03-03T08:38:30.300Z,100911.84
2023-03-03T08:40:57.779Z,100920.56
2023-03-03T08:43:25.237Z,100923.94
2023-03-03T08:45:54.176Z,100921.09
2023-03-03T08:48:22.216Z,100918.34
2023-03-03T08:51:14.846Z,100919.91
2023-03-03T08:53:43.648Z,100920.97
2023-03-03T08:56:11.150Z,100921.22
2023-03-03T08:58:41.983Z,100920.66
2023-03-03T09:04:11.183Z,100923.28
2023-03-03T09:06:39.139Z,100929.16
2023-03-03T09:09:08.200Z,100920.88
2023-03-03T09:11:35.781Z,100928.66
2023-03-03T09:16:53.099Z,100934.75
2023-03-03T09:19:24.815Z,100938.84
2023-03-03T09:21:54.708Z,100942.22
2023-03-03T09:24:29.163Z,100936.06
2023-03-03T09:26:58.484Z,100942.72
2023-03-03T09:32:37.650Z,100941.41
2023-03-03T09:35:35.925Z,100938.00
2023-03-03T09:38:13.227Z,100937.81
2023-03-03T09:40:53.407Z,100941.16
2023-03-03T09:43:26.805Z,100943.22
2023-03-03T09:49:04.588Z,100947.41
2023-03-03T09:54:48.027Z,100949.28
2023-03-03T09:57:18.495Z,100940.16
2023-03-03T10:00:02.428Z,100943.63
2023-03-03T10:02:48.058Z,100950.66
2023-03-03T10:05:16.316Z,100955.84
2023-03-03T10:07:51.633Z,100950.78
2023-03-03T10:10:27.103Z,100953.22
2023-03-03T10:13:07.358Z,100950.94
2023-03-03T10:15:41.181Z,100956.38
2023-03-03T10:18:16.516Z,100958.28
2023-03-03T10:20:54.652Z,100955.50
2023-03-03T10:23:28.006Z,100964.06
2023-03-03T10:26:03.292Z,100959.22
2023-03-03T10:28:54.669Z,100960.25
2023-03-03T10:31:33.747Z,100959.69
2023-03-03T10:34:11.185Z,100957.78
2023-03-03T10:36:47.919Z,100959.78
2023-03-03T10:39:27.251Z,100958.72
2023-03-03T10:42:05.552Z,100962.19
2023-03-03T10:47:50.159Z,100967.28
2023-03-03T10:50:22.599Z,100962.97
2023-03-03T10:52:54.323Z,100961.53
2023-03-03T10:58:46.519Z,100958.50
2023-03-03T11:01:24.442Z,100958.19
2023-03-03T11:04:04.694Z,100963.22
2023-03-03T11:06:39.077Z,100967.22
2023-03-03T11:12:21.442Z,100953.53
2023-03-03T11:18:02.431Z,100952.97
2023-03-03T11:20:37.296Z,100950.56
2023-03-03T11:23:18.231Z,100947.03
2023-03-03T11:25:50.777Z,100949.53
2023-03-03T11:31:14.386Z,100934.22
2023-03-03T11:33:51.832Z,100940.31
2023-03-03T11:36:22.149Z,100945.81
2023-03-03T11:38:54.284Z,100938.13
2023-03-03T11:41:30.773Z,100935.63
2023-03-03T11:44:04.612Z,100935.94
2023-03-03T11:46:38.159Z,100933.66
2023-03-03T11:49:08.017Z,100941.28
2023-03-03T11:51:45.615Z,100939.09
2023-03-03T11:54:19.914Z,100941.16
2023-03-03T11:56:48.762Z,100935.41
2023-03-03T12:02:46.912Z,100929.31
2023-03-03T12:05:26.644Z,100928.97
2023-03-03T12:07:58.430Z,100910.88
2023-03-03T12:10:29.909Z,100918.19
2023-03-03T12:16:01.714Z,100906.88
2023-03-03T12:18:40.731Z,100908.28
2023-03-03T12:21:18.098Z,100904.03
2023-03-03T12:24:04.911Z,100897.91
2023-03-03T12:26:35.714Z,100889.72
2023-03-03T12:29:07.563Z,100895.28
2023-03-03T12:34:28.388Z,100892.19
2023-03-03T12:37:05.130Z,100887.34
2023-03-03T12:39:43.446Z,100880.22
2023-03-03T12:42:15.807Z,100883.38
2023-03-03T12:44:47.032Z,100872.25
2023-03-03T12:47:19.623Z,100875.50
2023-03-03T12:52:55.272Z,100865.84
2023-03-03T12:55:27.969Z,100870.28
2023-03-03T13:00:59.463Z,100869.75
2023-03-03T13:06:33.916Z,100859.56
2023-03-03T13:09:17.454Z,100862.31
2023-03-03T13:11:54.168Z,100856.59
2023-03-03T13:14:31.061Z,100857.97
2023-03-03T13:20:02.290Z,100855.00
2023-03-03T13:22:38.122Z,100843.94
2023-03-03T13:25:10.118Z,100849.75
2023-03-03T13:27:40.785Z,100852.75
2023-03-03T13:30:17.738Z,100839.63
2023-03-03T13:35:56.226Z,100837.69
2023-03-03T13:38:26.758Z,100830.31
2023-03-03T13:41:01.085Z,100834.47
2023-03-03T13:43:31.500Z,100828.00
2023-03-03T13:49:08.278Z,100825.25
2023-03-03T13:54:58.126Z,100820.25
2023-03-03T13:57:35.072Z,100815.16
2023-03-03T14:00:10.950Z,100812.41
2023-03-03T14:03:04.931Z,100814.97
2023-03-03T14:05:38.223Z,100815.78
2023-03-03T14:08:12.482Z,100825.56
2023-03-03T14:10:45.575Z,100816.03
2023-03-03T14:13:14.052Z,100819.06
2023-03-03T14:15:47.431Z,100814.44
2023-03-03T14:18:25.121Z,100817.09
2023-03-03T14:20:53.802Z,100814.47
2023-03-03T14:23:24.340Z,100815.34
2023-03-03T14:29:07.471Z,100801.84
2023-03-03T14:31:40.863Z,100809.88
2023-03-03T14:34:34.043Z,100805.25
2023-03-03T14:37:20.763Z,100806.31
2023-03-03T14:39:52.080Z,100807.78
2023-03-03T14:42:33.665Z,100794.44
2023-03-03T14:45:05.037Z,100798.47
2023-03-03T14:47:32.523Z,100795.91
2023-03-03T14:53:15.120Z,100793.59
2023-03-03T14:55:44.269Z,100790.78
2023-03-03T14:58:33.060Z,100787.72
2023-03-03T15:03:59.384Z,100785.28
2023-03-03T15:06:34.362Z,100781.50
2023-03-03T15:09:33.657Z,100779.31
2023-03-03T15:12:01.897Z,100776.16
2023-03-03T15:14:36.634Z,100778.34
2023-03-03T15:20:06.361Z,100780.44
2023-03-03T15:22:47.895Z,100769.94
2023-03-03T15:25:22.852Z,100774.84
2023-03-03T15:27:52.789Z,100775.13
2023-03-03T15:30:26.186Z,100767.50
2023-03-03T15:33:01.022Z,100773.59
2023-03-03T15:35:38.518Z,100767.19
2023-03-03T15:41:19.203Z,100774.81
2023-03-03T15:43:53.462Z,100771.06
2023-03-03T15:46:28.359Z,100772.41
2023-03-03T15:49:03.826Z,100761.69
2023-03-03T15:51:53.841Z,100770.91
2023-03-03T15:54:46.861Z,100771.66
2023-03-03T15:57:19.510Z,100759.59
2023-03-03T16:00:07.989Z,100764.63
2023-03-03T16:02:50.347Z,100758.53
2023-03-03T16:08:25.585Z,100758.59
2023-03-03T16:11:00.556Z,100760.13
2023-03-03T16:16:34.563Z,100764.00
2023-03-03T16:19:08.265Z,100763.78
2023-03-03T16:21:50.258Z,100768.56
2023-03-03T16:24:26.085Z,100767.41
2023-03-03T16:26:56.062Z,100769.06
2023-03-03T16:29:34.971Z,100769.38
2023-03-03T16:32:06.238Z,100765.84
2023-03-03T16:34:38.497Z,100770.28
2023-03-03T16:37:13.979Z,100767.28
2023-03-03T16:42:48.283Z,100761.25
2023-03-03T16:48:30.325Z,100773.69
2023-03-03T16:51:10.620Z,100765.69
2023-03-03T16:53:47.694Z,100763.44
2023-03-03T17:22:27.569Z,100779.50
2023-03-03T17:25:05.376Z,100772.91
2023-03-03T17:27:41.619Z,100790.25
2023-03-03T17:30:15.287Z,100779.31
2023-03-03T17:32:54.592Z,100781.09
2023-03-03T17:35:34.340Z,100778.56
2023-03-03T17:41:06.010Z,100778.34
2023-03-03T17:43:39.911Z,100783.34
2023-03-03T17:46:22.142Z,100780.59
2023-03-03T17:49:07.484Z,100788.75
2023-03-03T17:51:46.055Z,100786.66
2023-03-03T17:57:30.394Z,100788.75
2023-03-03T18:00:27.561Z,100785.84
2023-03-03T18:03:16.049Z,100782.88
2023-03-03T18:05:55.394Z,100793.66
2023-03-03T18:08:42.068Z,100784.75
2023-03-03T18:11:16.506Z,100790.84
2023-03-03T18:13:56.887Z,100786.25
2023-03-03T18:16:33.855Z,100790.47
2023-03-03T18:19:13.358Z,100796.47
2023-03-03T18:21:45.079Z,100792.00
2023-03-03T18:24:28.246Z,100796.22
2023-03-03T18:26:56.694Z,100802.28
2023-03-03T18:29:27.821Z,100797.41
2023-03-03T18:32:05.474Z,100800.22
2023-03-03T18:34:38.485Z,100802.34
2023-03-03T18:37:10.650Z,100798.16
2023-03-03T18:39:48.092Z,100806.19
2023-03-03T18:42:37.941Z,100811.97
2023-03-03T18:48:09.037Z,100804.13
2023-03-03T18:50:38.164Z,100804.97
2023-03-03T18:53:23.746Z,100803.97
2023-03-03T18:55:52.855Z,100802.81
2023-03-03T18:58:32.616Z,100806.59
2023-03-03T19:01:02.303Z,100817.59
2023-03-03T19:03:34.101Z,100813.16
2023-03-03T19:06:02.594Z,100815.84
2023-03-03T19:08:45.893Z,100819.03
2023-03-03T19:11:33.233Z,100812.31
2023-03-03T19:16:58.966Z,100804.84
2023-03-03T19:22:31.620Z,100816.09
2023-03-03T19:25:08.054Z,100814.88
2023-03-03T19:30:54.884Z,100804.53
2023-03-03T19:36:37.230Z,100805.97
2023-03-03T19:39:18.509Z,100803.34
2023-03-03T19:41:53.612Z,100812.44
2023-03-03T19:44:31.043Z,100807.94
2023-03-03T19:47:01.911Z,100815.09
2023-03-03T19:49:43.546Z,100814.03
2023-03-03T19:52:17.856Z,100809.78
2023-03-03T19:58:00.119Z,100803.16
2023-03-03T20:00:33.506Z,100813.34
2023-03-03T20:03:39.678Z,100818.03
2023-03-03T20:06:17.267Z,100809.34
2023-03-03T20:08:51.861Z,100814.66
2023-03-03T20:11:35.774Z,100815.16
2023-03-03T20:17:18.206Z,100812.44
2023-03-03T20:19:51.952Z,100806.06
2023-03-03T20:22:26.911Z,100810.75
2023-03-03T20:25:02.614Z,100809.44
2023-03-03T20:27:45.809Z,100806.66
2023-03-03T20:30:20.487Z,100801.28
2023-03-03T20:35:55.255Z,100807.88
2023-03-03T20:38:27.964Z,100796.63
2023-03-03T20:41:03.171Z,100814.44
2023-03-03T20:43:41.422Z,100806.31
2023-03-03T20:49:11.038Z,100806.94
2023-03-03T20:51:42.385Z,100799.34
2023-03-03T20:54:16.982Z,100803.19
2023-03-03T20:56:48.800Z,100796.25
2023-03-03T20:59:23.134Z,100796.72
2023-03-03T21:01:54.793Z,100799.34
2023-03-03T21:04:24.357Z,100804.53
2023-03-03T21:09:49.455Z,100797.22
2023-03-03T21:15:28.903Z,100793.59
2023-03-03T21:17:58.064Z,100788.47
2023-03-03T21:20:28.743Z,100797.78
2023-03-03T21:22:56.689Z,100796.00
2023-03-03T21:28:24.953Z,100797.41
2023-03-03T21:31:14.114Z,100799.81
2023-03-03T21:36:47.154Z,100809.50
2023-03-03T21:39:22.478Z,100805.78
2023-03-03T21:44:43.954Z,100800.44
2023-03-03T21:47:15.087Z,100798.63
2023-03-03T21:49:43.359Z,100795.13
2023-03-03T21:52:11.453Z,100783.16
2023-03-03T21:57:41.657Z,100786.25
2023-03-03T22:00:10.388Z,100798.25
2023-03-03T22:02:39.204Z,100789.28
2023-03-03T22:05:07.978Z,100794.41
2023-03-03T22:07:35.487Z,100791.19
2023-03-03T22:10:02.991Z,100788.44
2023-03-03T22:12:30.425Z,100787.09
2023-03-03T22:14:57.877Z,100786.25
2023-03-03T22:17:25.456Z,100786.38
2023-03-03T22:22:56.936Z,100785.09
2023-03-03T22:25:24.629Z,100783.63
2023-03-03T22:27:52.055Z,100786.28
2023-03-03T22:30:19.667Z,100783.31
2023-03-03T22:32:47.091Z,100779.09
2023-03-03T22:35:14.752Z,100780.06
2023-03-03T22:40:42.223Z,100781.50
2023-03-03T22:43:11.278Z,100778.63
2023-03-03T22:45:38.807Z,100775.16
2023-03-03T22:48:06.562Z,100776.59
2023-03-03T22:50:39.252Z,100766.31
2023-03-03T22:53:06.691Z,100770.50
2023-03-03T22:55:36.830Z,100765.84
2023-03-03T22:58:07.536Z,100766.53
2023-03-03T23:03:37.066Z,100763.66
2023-03-03T23:06:05.265Z,100750.59
2023-03-03T23:08:32.705Z,100762.81
2023-03-03T23:11:02.773Z,100763.31
2023-03-03T23:13:32.298Z,100755.72
2023-03-03T23:16:00.228Z,100761.00
2023-03-03T23:21:30.607Z,100764.28
2023-03-03T23:23:58.030Z,100757.31
2023-03-03T23:26:58.010Z,100756.25
2023-03-03T23:29:26.876Z,100751.31
2023-03-03T23:31:54.452Z,100761.84
2023-03-03T23:34:21.991Z,100752.88
2023-03-03T23:36:49.501Z,100753.25
2023-03-03T23:39:17.356Z,100753.00
2023-03-03T23:41:45.562Z,100752.03
2023-03-03T23:44:13.435Z,100751.31
2023-03-03T23:46:42.335Z,100749.03
2023-03-03T23:49:09.851Z,100749.03
2023-03-03T23:51:37.453Z,100752.41
2023-03-03T23:54:05.188Z,100749.53
2023-03-03T23:56:32.657Z,100746.78
2023-03-03T23:59:00.120Z,100753.47
